createdAt,value
2022-10-08T00:01:24.237Z,74.53
2022-10-08T00:03:54.564Z,73.09
2022-10-08T00:06:31.914Z,73.56
2022-10-08T00:09:08.499Z,73.40
2022-10-08T00:11:39.666Z,73.42
2022-10-08T00:14:08.239Z,73.62
2022-10-08T00:16:40.396Z,73.15
2022-10-08T00:19:10.879Z,74.16
2022-10-08T00:21:41.963Z,74.68
2022-10-08T00:24:17.402Z,74.98
2022-10-08T00:26:46.197Z,76.04
2022-10-08T00:29:17.453Z,74.34
2022-10-08T00:31:48.044Z,76.57
2022-10-08T00:34:19.927Z,76.44
2022-10-08T00:36:53.409Z,78.04
2022-10-08T00:39:23.964Z,78.26
2022-10-08T00:41:55.087Z,78.35
2022-10-08T00:44:53.745Z,77.82
2022-10-08T00:47:32.697Z,77.36
2022-10-08T00:50:47.126Z,77.10
2022-10-08T00:53:14.336Z,77.49
2022-10-08T00:55:43.771Z,76.86
2022-10-08T00:58:23.074Z,76.27
2022-10-08T01:00:50.386Z,76.41
2022-10-08T01:03:17.937Z,76.27
2022-10-08T01:06:01.264Z,75.69
2022-10-08T01:08:58.496Z,76.76
2022-10-08T01:11:31.369Z,75.75
2022-10-08T01:14:07.513Z,75.52
2022-10-08T01:17:05.212Z,76.08
2022-10-08T01:19:57.217Z,75.19
2022-10-08T01:22:57.613Z,75.11
2022-10-08T01:25:38.302Z,75.42
2022-10-08T01:28:40.966Z,75.77
2022-10-08T01:31:31.373Z,76.13
2022-10-08T01:34:00.389Z,76.55
2022-10-08T01:36:33.243Z,76.43
2022-10-08T01:39:08.402Z,76.36
2022-10-08T01:41:35.905Z,76.07
2022-10-08T01:44:13.659Z,77.50
2022-10-08T01:46:46.647Z,78.38
2022-10-08T01:49:22.176Z,77.44
2022-10-08T01:51:58.301Z,76.27
2022-10-08T01:54:28.896Z,75.66
2022-10-08T01:56:59.414Z,76.58
2022-10-08T01:59:52.179Z,76.57
2022-10-08T02:02:25.430Z,76.53
2022-10-08T02:04:55.658Z,76.75
2022-10-08T02:07:30.993Z,76.27
2022-10-08T02:10:11.437Z,76.30
2022-10-08T02:12:40.314Z,77.38
2022-10-08T02:15:15.637Z,77.36
2022-10-08T02:18:21.087Z,76.35
2022-10-08T02:21:19.001Z,76.13
2022-10-08T02:24:33.831Z,76.39
2022-10-08T02:27:04.672Z,76.59
2022-10-08T02:29:37.925Z,78.39
2022-10-08T02:32:11.436Z,77.85
2022-10-08T02:34:56.467Z,78.43
2022-10-08T02:37:28.251Z,77.69
2022-10-08T02:40:10.905Z,78.24
2022-10-08T02:42:44.984Z,77.25
2022-10-08T02:45:38.014Z,76.77
2022-10-08T02:48:15.169Z,76.47
2022-10-08T02:50:45.696Z,76.37
2022-10-08T02:53:18.368Z,75.91
2022-10-08T02:56:08.526Z,76.16
2022-10-08T02:58:38.924Z,76.07
2022-10-08T03:01:30.993Z,76.09
2022-10-08T03:04:12.683Z,76.07
2022-10-08T03:06:43.438Z,75.60
2022-10-08T03:09:14.498Z,76.15
2022-10-08T03:11:44.532Z,75.68
2022-10-08T03:14:15.630Z,75.66
2022-10-08T03:16:45.994Z,75.44
2022-10-08T03:19:17.024Z,75.19
2022-10-08T03:21:46.983Z,75.05
2022-10-08T03:24:15.454Z,75.58
2022-10-08T03:26:43.213Z,75.30
2022-10-08T03:29:11.190Z,75.14
2022-10-08T03:31:38.836Z,75.81
2022-10-08T03:34:12.144Z,75.25
2022-10-08T03:36:39.287Z,75.58
2022-10-08T03:39:11.751Z,75.45
2022-10-08T03:41:41.282Z,75.17
2022-10-08T03:44:09.699Z,75.07
2022-10-08T03:46:36.996Z,76.10
2022-10-08T03:49:04.362Z,77.26
2022-10-08T03:51:31.493Z,76.68
2022-10-08T03:53:58.815Z,76.72
2022-10-08T03:56:26.519Z,76.38
2022-10-08T03:58:59.660Z,76.14
2022-10-08T04:01:29.086Z,75.99
2022-10-08T04:04:01.335Z,75.18
2022-10-08T04:06:28.684Z,75.65
2022-10-08T04:09:01.245Z,75.62
2022-10-08T04:11:29.300Z,75.44
2022-10-08T04:13:56.734Z,75.57
2022-10-08T04:16:26.320Z,76.20
2022-10-08T04:18:56.485Z,76.21
2022-10-08T04:21:23.644Z,76.32
2022-10-08T04:23:50.964Z,76.23
2022-10-08T04:26:18.453Z,76.20
2022-10-08T04:28:46.334Z,75.33
2022-10-08T04:31:21.887Z,75.04
2022-10-08T04:33:51.686Z,74.98
2022-10-08T04:36:22.928Z,75.35
2022-10-08T04:38:50.745Z,75.21
2022-10-08T04:41:22.577Z,75.78
2022-10-08T04:43:50.644Z,75.54
2022-10-08T04:46:23.840Z,74.91
2022-10-08T04:48:54.673Z,75.00
2022-10-08T04:51:24.980Z,75.03
2022-10-08T04:53:53.930Z,75.14
2022-10-08T04:56:31.182Z,74.79
2022-10-08T04:58:59.855Z,76.07
2022-10-08T05:01:30.772Z,75.10
2022-10-08T05:03:59.648Z,75.28
2022-10-08T05:06:30.406Z,75.24
2022-10-08T05:09:03.101Z,75.06
2022-10-08T05:11:31.950Z,75.65
2022-10-08T05:13:59.914Z,74.92
2022-10-08T05:16:27.784Z,74.71
2022-10-08T05:18:56.346Z,74.55
2022-10-08T05:21:27.775Z,74.03
2022-10-08T05:24:05.322Z,73.99
2022-10-08T05:29:28.548Z,74.99
2022-10-08T05:31:58.871Z,74.52
2022-10-08T05:34:26.338Z,75.21
2022-10-08T05:36:53.624Z,73.98
2022-10-08T05:39:25.606Z,73.39
2022-10-08T05:41:54.182Z,74.33
2022-10-08T05:44:21.637Z,73.70
2022-10-08T05:46:48.806Z,74.09
2022-10-08T05:49:22.522Z,73.63
2022-10-08T05:51:53.516Z,74.72
2022-10-08T05:54:23.541Z,73.21
2022-10-08T05:56:50.757Z,73.33
2022-10-08T05:59:23.699Z,72.49
2022-10-08T06:01:51.998Z,72.55
2022-10-08T06:04:19.699Z,71.89
2022-10-08T06:06:47.173Z,69.31
2022-10-08T06:09:25.494Z,66.67
2022-10-08T06:11:52.781Z,68.77
2022-10-08T06:14:25.903Z,72.85
2022-10-08T06:16:57.916Z,69.75
2022-10-08T06:19:25.121Z,70.56
2022-10-08T06:21:52.419Z,70.11
2022-10-08T06:24:21.032Z,69.59
2022-10-08T06:26:48.263Z,71.57
2022-10-08T06:29:19.275Z,69.99
2022-10-08T06:31:47.107Z,68.85
2022-10-08T06:34:19.796Z,67.19
2022-10-08T06:36:46.958Z,66.13
2022-10-08T06:39:17.792Z,64.60
2022-10-08T06:41:47.876Z,61.44
2022-10-08T06:44:15.768Z,61.49
2022-10-08T06:46:43.242Z,62.82
2022-10-08T06:49:13.400Z,64.10
2022-10-08T06:51:40.818Z,64.04
2022-10-08T06:54:08.736Z,63.25
2022-10-08T06:56:38.733Z,62.72
2022-10-08T06:59:06.934Z,62.46
2022-10-08T07:01:35.534Z,61.86
2022-10-08T07:04:04.231Z,61.73
2022-10-08T07:06:31.633Z,61.54
2022-10-08T07:09:01.403Z,61.47
2022-10-08T07:11:33.670Z,64.29
2022-10-08T07:14:03.521Z,63.65
2022-10-08T07:16:30.734Z,63.31
2022-10-08T07:19:01.513Z,63.09
2022-10-08T07:21:30.255Z,62.69
2022-10-08T07:24:02.091Z,63.00
2022-10-08T07:26:34.952Z,62.33
2022-10-08T07:29:24.629Z,62.46
2022-10-08T07:31:51.969Z,61.76
2022-10-08T07:34:22.109Z,61.18
2022-10-08T07:36:49.245Z,60.88
2022-10-08T07:39:24.049Z,59.87
2022-10-08T07:41:51.729Z,60.68
2022-10-08T07:44:19.118Z,60.10
2022-10-08T07:46:50.609Z,63.04
2022-10-08T07:49:19.420Z,61.24
2022-10-08T07:51:48.188Z,59.50
2022-10-08T07:54:21.456Z,58.78
2022-10-08T07:56:48.809Z,58.86
2022-10-08T07:59:16.247Z,58.42
2022-10-08T08:01:43.861Z,59.71
2022-10-08T08:04:12.267Z,60.57
2022-10-08T08:06:47.791Z,62.68
2022-10-08T08:09:18.402Z,65.22
2022-10-08T08:11:46.532Z,67.35
2022-10-08T08:14:13.826Z,69.02
2022-10-08T08:16:40.989Z,67.07
2022-10-08T08:19:08.478Z,68.50
2022-10-08T08:21:39.637Z,67.57
2022-10-08T08:24:11.485Z,68.81
2022-10-08T08:26:41.539Z,67.58
2022-10-08T08:29:13.623Z,65.52
2022-10-08T08:31:46.569Z,64.10
2022-10-08T08:34:18.985Z,64.15
2022-10-08T08:36:49.379Z,62.54
2022-10-08T08:39:24.379Z,62.40
2022-10-08T08:42:25.456Z,59.98
2022-10-08T08:45:02.091Z,57.63
2022-10-08T08:48:06.790Z,54.45
2022-10-08T08:50:38.292Z,55.83
2022-10-08T08:53:08.868Z,58.15
2022-10-08T08:55:47.353Z,55.79
2022-10-08T08:59:05.549Z,54.55
2022-10-08T09:01:45.338Z,53.94
2022-10-08T09:04:45.111Z,55.23
2022-10-08T09:07:18.969Z,56.06
2022-10-08T09:09:53.486Z,54.62
2022-10-08T09:12:31.249Z,56.26
2022-10-08T09:15:01.668Z,51.93
2022-10-08T09:17:36.480Z,50.81
2022-10-08T09:20:04.355Z,50.69
2022-10-08T09:22:41.858Z,49.81
2022-10-08T09:25:31.497Z,47.69
2022-10-08T09:28:04.885Z,47.56
2022-10-08T09:30:45.003Z,46.96
2022-10-08T09:33:18.690Z,46.75
2022-10-08T09:35:55.115Z,48.12
2022-10-08T09:38:28.166Z,48.14
2022-10-08T09:41:19.384Z,50.42
2022-10-08T09:44:25.578Z,49.61
2022-10-08T09:47:06.443Z,51.95
2022-10-08T09:49:37.908Z,53.45
2022-10-08T09:52:19.642Z,54.77
2022-10-08T09:54:52.485Z,55.93
2022-10-08T09:57:23.481Z,56.58
2022-10-08T09:59:59.239Z,57.52
2022-10-08T10:02:38.746Z,58.50
2022-10-08T10:05:24.824Z,58.24
2022-10-08T10:07:53.004Z,57.95
2022-10-08T10:10:41.070Z,59.09
2022-10-08T10:13:34.965Z,58.64
2022-10-08T10:16:33.207Z,59.07
2022-10-08T10:19:17.068Z,58.48
2022-10-08T10:22:00.181Z,57.67
2022-10-08T10:24:46.438Z,57.71
2022-10-08T10:27:30.711Z,58.35
2022-10-08T10:30:14.949Z,58.16
2022-10-08T10:33:19.564Z,57.17
2022-10-08T10:35:54.589Z,57.06
2022-10-08T10:38:27.990Z,56.71
2022-10-08T10:41:09.866Z,57.07
2022-10-08T10:43:50.872Z,55.39
2022-10-08T10:46:41.936Z,56.05
2022-10-08T10:49:15.256Z,57.93
2022-10-08T10:52:19.986Z,56.66
2022-10-08T10:55:14.809Z,55.87
2022-10-08T10:58:20.564Z,57.74
2022-10-08T11:01:15.930Z,57.76
2022-10-08T11:04:13.307Z,57.55
2022-10-08T11:06:55.260Z,57.58
2022-10-08T11:09:42.754Z,56.91
2022-10-08T11:12:38.713Z,56.88
2022-10-08T11:16:10.047Z,56.55
2022-10-08T11:18:59.431Z,55.37
2022-10-08T11:21:50.128Z,55.39
2022-10-08T11:24:23.997Z,55.22
2022-10-08T11:26:57.900Z,55.04
2022-10-08T11:30:00.532Z,55.82
2022-10-08T11:32:29.944Z,55.59
2022-10-08T11:35:12.276Z,54.57
2022-10-08T11:38:00.001Z,54.72
2022-10-08T11:40:53.947Z,53.45
2022-10-08T11:44:01.729Z,53.31
2022-10-08T11:46:36.810Z,52.83
2022-10-08T11:49:15.577Z,52.86
2022-10-08T11:51:50.574Z,53.57
2022-10-08T11:54:26.523Z,51.59
2022-10-08T11:57:25.725Z,53.17
2022-10-08T11:59:59.792Z,53.60
2022-10-08T12:02:35.929Z,51.99
2022-10-08T12:05:47.881Z,52.42
2022-10-08T12:08:59.385Z,52.18
2022-10-08T12:11:32.357Z,53.12
2022-10-08T12:14:17.381Z,52.89
2022-10-08T12:16:57.058Z,52.27
2022-10-08T12:19:33.739Z,51.60
2022-10-08T12:22:10.372Z,52.61
2022-10-08T12:24:40.423Z,52.00
2022-10-08T12:27:46.797Z,52.30
2022-10-08T12:30:17.681Z,52.87
2022-10-08T12:32:45.102Z,52.46
2022-10-08T12:35:34.161Z,52.37
2022-10-08T12:38:29.355Z,52.67
2022-10-08T12:41:41.781Z,50.98
2022-10-08T12:44:45.748Z,52.52
2022-10-08T12:47:37.193Z,52.78
2022-10-08T12:51:05.451Z,52.44
2022-10-08T12:53:33.615Z,52.51
2022-10-08T12:56:01.149Z,52.82
2022-10-08T12:58:35.891Z,52.57
2022-10-08T13:01:05.894Z,52.80
2022-10-08T13:03:33.322Z,52.10
2022-10-08T13:06:31.776Z,52.30
2022-10-08T13:09:03.326Z,51.73
2022-10-08T13:11:30.564Z,51.78
2022-10-08T13:13:57.877Z,50.68
2022-10-08T13:16:26.985Z,49.41
2022-10-08T13:19:02.575Z,49.24
2022-10-08T13:21:36.176Z,48.25
2022-10-08T13:24:25.381Z,48.80
2022-10-08T13:26:55.986Z,48.50
2022-10-08T13:29:23.186Z,48.08
2022-10-08T13:32:14.523Z,48.91
2022-10-08T13:34:43.695Z,47.61
2022-10-08T13:37:22.951Z,47.36
2022-10-08T13:40:00.902Z,47.15
2022-10-08T13:42:39.950Z,47.29
2022-10-08T13:45:17.210Z,48.07
2022-10-08T13:47:45.088Z,48.29
2022-10-08T13:50:16.780Z,48.50
2022-10-08T13:52:53.979Z,48.42
2022-10-08T13:55:21.163Z,48.66
2022-10-08T13:57:48.590Z,48.40
2022-10-08T14:00:16.830Z,48.48
2022-10-08T14:02:46.727Z,48.19
2022-10-08T14:05:14.008Z,48.16
2022-10-08T14:07:46.297Z,47.30
2022-10-08T14:10:14.529Z,48.45
2022-10-08T14:12:41.759Z,47.53
2022-10-08T14:15:13.660Z,47.19
2022-10-08T14:17:40.943Z,47.38
2022-10-08T14:20:09.642Z,46.89
2022-10-08T14:22:39.829Z,47.22
2022-10-08T14:25:16.866Z,47.24
2022-10-08T14:27:45.585Z,47.02
2022-10-08T14:30:14.690Z,46.74
2022-10-08T14:32:42.413Z,47.19
2022-10-08T14:35:11.333Z,46.35
2022-10-08T14:37:38.916Z,45.63
2022-10-08T14:40:11.321Z,46.21
2022-10-08T14:42:38.437Z,46.52
2022-10-08T14:45:06.209Z,46.34
2022-10-08T14:47:33.325Z,46.69
2022-10-08T14:50:00.716Z,47.49
2022-10-08T14:52:27.915Z,46.54
2022-10-08T14:54:55.318Z,47.34
2022-10-08T14:57:23.170Z,48.62
2022-10-08T14:59:50.296Z,48.41
2022-10-08T15:02:17.456Z,49.57
2022-10-08T15:04:44.593Z,49.04
2022-10-08T15:07:11.795Z,49.54
2022-10-08T15:09:41.402Z,49.41
2022-10-08T15:12:08.812Z,49.26
2022-10-08T15:14:38.661Z,49.72
2022-10-08T15:17:05.968Z,48.88
2022-10-08T15:19:33.282Z,49.86
2022-10-08T15:22:00.676Z,50.30
2022-10-08T15:24:27.883Z,50.23
2022-10-08T15:26:57.285Z,51.49
2022-10-08T15:29:24.381Z,51.42
2022-10-08T15:31:54.033Z,52.04
2022-10-08T15:34:22.583Z,52.55
2022-10-08T15:36:49.856Z,52.43
2022-10-08T15:39:21.247Z,53.10
2022-10-08T15:41:54.491Z,53.16
2022-10-08T15:44:26.072Z,53.48
2022-10-08T15:47:04.608Z,53.53
2022-10-08T15:49:37.269Z,53.05
2022-10-08T15:52:07.643Z,53.55
2022-10-08T15:54:42.156Z,54.08
2022-10-08T15:57:13.669Z,53.87
2022-10-08T15:59:43.507Z,54.87
2022-10-08T16:02:17.624Z,54.67
2022-10-08T16:04:48.744Z,55.99
2022-10-08T16:07:17.399Z,56.42
2022-10-08T16:09:44.584Z,57.04
2022-10-08T16:12:14.296Z,57.32
2022-10-08T16:14:41.462Z,57.81
2022-10-08T16:17:09.056Z,57.96
2022-10-08T16:19:38.618Z,59.50
2022-10-08T16:22:06.664Z,59.04
2022-10-08T16:24:33.983Z,59.48
2022-10-08T16:27:01.134Z,60.68
2022-10-08T16:29:30.694Z,61.20
2022-10-08T16:31:58.771Z,61.57
2022-10-08T16:34:28.595Z,62.43
2022-10-08T16:36:56.166Z,62.49
2022-10-08T16:39:25.839Z,63.89
2022-10-08T16:41:52.970Z,63.18
2022-10-08T16:44:21.429Z,63.33
2022-10-08T16:46:52.888Z,63.53
2022-10-08T16:49:26.901Z,64.01
2022-10-08T16:52:00.802Z,62.99
2022-10-08T16:54:28.812Z,63.94
2022-10-08T16:56:56.811Z,63.80
2022-10-08T16:59:29.070Z,64.35
2022-10-08T17:01:57.909Z,65.39
2022-10-08T17:04:28.451Z,65.72
2022-10-08T17:06:56.092Z,65.35
2022-10-08T17:09:23.595Z,65.20
2022-10-08T17:11:50.839Z,65.88
2022-10-08T17:14:20.952Z,65.87
2022-10-08T17:16:50.581Z,66.33
2022-10-08T17:19:18.618Z,66.26
2022-10-08T17:21:48.440Z,66.68
2022-10-08T17:24:15.612Z,66.16
2022-10-08T17:26:42.815Z,66.70
2022-10-08T17:29:12.849Z,66.69
2022-10-08T17:31:40.805Z,66.24
2022-10-08T17:34:13.513Z,67.25
2022-10-08T17:36:43.995Z,66.87
2022-10-08T17:39:15.784Z,66.94
2022-10-08T17:41:43.673Z,67.53
2022-10-08T17:44:12.146Z,67.77
2022-10-08T17:46:50.175Z,68.51
2022-10-08T17:49:20.661Z,68.82
2022-10-08T17:51:48.567Z,69.29
2022-10-08T17:54:19.774Z,70.66
2022-10-08T17:56:48.196Z,70.74
2022-10-08T17:59:17.749Z,71.72
2022-10-08T18:01:46.175Z,72.85
2022-10-08T18:04:16.451Z,73.51
2022-10-08T18:06:46.474Z,73.72
2022-10-08T18:09:20.820Z,74.64
2022-10-08T18:11:53.423Z,75.21
2022-10-08T18:14:22.282Z,75.17
2022-10-08T18:16:49.906Z,75.67
2022-10-08T18:19:18.421Z,75.57
2022-10-08T18:21:46.420Z,75.63
2022-10-08T18:24:13.928Z,75.33
2022-10-08T18:26:41.166Z,75.38
2022-10-08T18:29:11.976Z,75.31
2022-10-08T18:31:42.261Z,75.57
2022-10-08T18:34:15.783Z,76.56
2022-10-08T18:36:45.347Z,77.42
2022-10-08T18:39:19.075Z,76.98
2022-10-08T18:41:49.467Z,76.99
2022-10-08T18:44:22.066Z,78.85
2022-10-08T18:46:50.180Z,79.17
2022-10-08T18:49:20.698Z,79.03
2022-10-08T18:51:50.119Z,79.92
2022-10-08T18:54:17.478Z,79.96
2022-10-08T18:56:44.522Z,79.12
2022-10-08T18:59:15.006Z,79.58
2022-10-08T19:01:47.604Z,80.17
2022-10-08T19:04:21.043Z,81.81
2022-10-08T19:06:51.171Z,81.72
2022-10-08T19:09:19.004Z,81.92
2022-10-08T19:11:49.819Z,82.07
2022-10-08T19:14:21.868Z,83.10
2022-10-08T19:16:51.897Z,82.46
2022-10-08T19:19:27.409Z,82.77
2022-10-08T19:21:55.767Z,83.16
2022-10-08T19:24:27.559Z,82.12
2022-10-08T19:26:56.329Z,82.98
2022-10-08T19:29:29.555Z,83.37
2022-10-08T19:31:58.016Z,83.32
2022-10-08T19:34:29.331Z,83.11
2022-10-08T19:36:56.624Z,82.66
2022-10-08T19:39:31.027Z,83.75
2022-10-08T19:42:00.666Z,85.30
2022-10-08T19:44:27.838Z,84.95
2022-10-08T19:46:55.148Z,85.71
2022-10-08T19:49:22.500Z,85.12
2022-10-08T19:51:49.732Z,84.37
2022-10-08T19:54:18.304Z,84.85
2022-10-08T19:56:45.855Z,85.27
2022-10-08T19:59:13.805Z,85.17
2022-10-08T20:01:42.834Z,85.74
2022-10-08T20:04:11.896Z,85.46
2022-10-08T20:06:43.262Z,85.60
2022-10-08T20:09:14.210Z,85.50
2022-10-08T20:11:46.334Z,84.63
2022-10-08T20:14:14.908Z,84.04
2022-10-08T20:16:45.944Z,85.38
2022-10-08T20:19:21.065Z,85.28
2022-10-08T20:21:49.861Z,84.87
2022-10-08T20:24:19.004Z,84.31
2022-10-08T20:26:46.628Z,84.35
2022-10-08T20:29:20.842Z,84.04
2022-10-08T20:31:54.302Z,84.46
2022-10-08T20:34:28.829Z,84.07
2022-10-08T20:36:58.067Z,84.32
2022-10-08T20:39:25.316Z,83.41
2022-10-08T20:41:52.517Z,82.81
2022-10-08T20:44:20.282Z,82.42
2022-10-08T20:46:50.611Z,82.84
2022-10-08T20:49:18.348Z,81.86
2022-10-08T20:51:45.505Z,81.29
2022-10-08T20:54:17.261Z,81.99
2022-10-08T20:56:47.128Z,81.49
2022-10-08T20:59:19.008Z,80.76
2022-10-08T21:01:55.743Z,81.62
2022-10-08T21:04:24.097Z,81.35
2022-10-08T21:06:52.009Z,82.04
2022-10-08T21:09:24.013Z,80.92
2022-10-08T21:11:52.469Z,80.57
2022-10-08T21:14:22.759Z,80.38
2022-10-08T21:16:50.136Z,80.71
2022-10-08T21:19:22.309Z,80.88
2022-10-08T21:21:49.362Z,81.41
2022-10-08T21:24:16.984Z,81.16
2022-10-08T21:26:44.430Z,80.14
2022-10-08T21:29:14.293Z,79.87
2022-10-08T21:31:42.339Z,80.55
2022-10-08T21:34:12.446Z,80.23
2022-10-08T21:36:41.476Z,80.30
2022-10-08T21:39:15.262Z,80.51
2022-10-08T21:41:42.353Z,80.80
2022-10-08T21:44:09.775Z,80.53
2022-10-08T21:46:40.905Z,80.32
2022-10-08T21:49:15.120Z,80.12
2022-10-08T21:51:45.359Z,80.71
2022-10-08T21:54:13.652Z,80.17
2022-10-08T21:56:42.383Z,80.29
2022-10-08T21:59:14.151Z,80.24
2022-10-08T22:01:48.159Z,80.48
2022-10-08T22:04:16.875Z,80.21
2022-10-08T22:06:50.979Z,80.53
2022-10-08T22:09:26.284Z,80.24
2022-10-08T22:11:55.504Z,80.34
2022-10-08T22:14:24.023Z,79.86
2022-10-08T22:16:56.316Z,80.50
2022-10-08T22:19:23.823Z,80.99
2022-10-08T22:21:51.126Z,80.38
2022-10-08T22:24:18.636Z,81.11
2022-10-08T22:26:47.755Z,81.30
2022-10-08T22:29:15.308Z,81.63
2022-10-08T22:31:42.638Z,81.86
2022-10-08T22:34:10.145Z,81.24
2022-10-08T22:36:44.030Z,81.76
2022-10-08T22:39:11.932Z,81.08
2022-10-08T22:41:41.892Z,81.45
2022-10-08T22:44:09.235Z,81.42
2022-10-08T22:46:39.533Z,82.45
2022-10-08T22:49:12.291Z,82.63
2022-10-08T22:51:43.937Z,82.30
2022-10-08T22:54:11.168Z,81.84
2022-10-08T22:56:38.425Z,82.41
2022-10-08T22:59:05.530Z,82.84
2022-10-08T23:01:32.724Z,83.19
2022-10-08T23:03:59.987Z,83.44
2022-10-08T23:06:31.232Z,83.61
2022-10-08T23:09:02.277Z,83.25
2022-10-08T23:11:31.858Z,82.95
2022-10-08T23:14:00.814Z,83.78
2022-10-08T23:16:31.380Z,83.29
2022-10-08T23:19:05.861Z,84.00
2022-10-08T23:21:34.079Z,83.49
2022-10-08T23:24:01.454Z,83.01
2022-10-08T23:26:29.413Z,83.97
2022-10-08T23:29:00.450Z,83.69
2022-10-08T23:31:31.596Z,83.00
2022-10-08T23:33:59.930Z,82.99
2022-10-08T23:36:33.280Z,83.56
2022-10-08T23:39:00.614Z,83.93
2022-10-08T23:41:28.390Z,84.12
2022-10-08T23:43:57.447Z,83.99
2022-10-08T23:46:29.647Z,83.68
2022-10-08T23:48:57.842Z,84.12
2022-10-08T23:51:31.683Z,83.74
2022-10-08T23:53:59.291Z,83.77
2022-10-08T23:56:26.844Z,84.34
2022-10-08T23:58:54.165Z,84.68
